Time;durP1;ratioP1;P1;durP2;ratioP2;P2;SDS_P1;SDS_P2;PMS_P1;PMS_P2;Temp;Humidity;BMP_temperature;BMP_pressure;BME280_temperature;BME280_humidity;BME280_pressure;Samples;Min_cycle;Max_cycle;Signal;HPM_P1;HPM_P2
2022/08/03 00:00:35;;;;;;;1.90;1.80;;;30.40;43.20;;;;;;5115022;28;20450;-78
2022/08/03 00:03:03;;;;;;;1.90;1.80;;;30.40;43.20;;;;;;5115420;28;20447;-77
2022/08/03 00:05:32;;;;;;;2.00;2.00;;;30.40;43.20;;;;;;5114288;28;20483;-77
2022/08/03 00:08:01;;;;;;;1.90;1.90;;;30.40;43.30;;;;;;5114686;28;20420;-78
2022/08/03 00:10:31;;;;;;;2.13;2.00;;;30.30;43.30;;;;;;5114619;28;20573;-77
2022/08/03 00:12:58;;;;;;;1.90;1.83;;;30.30;43.30;;;;;;5114652;28;20458;-76
2022/08/03 00:15:26;;;;;;;1.93;1.83;;;30.30;43.30;;;;;;5114052;28;20462;-76
2022/08/03 00:17:54;;;;;;;1.93;1.90;;;30.30;43.30;;;;;;5114667;28;20443;-77
2022/08/03 00:20:22;;;;;;;2.00;2.00;;;30.30;43.30;;;;;;5114824;28;20461;-76
2022/08/03 00:22:50;;;;;;;2.00;1.90;;;30.30;43.40;;;;;;5114477;28;20443;-76
2022/08/03 00:25:19;;;;;;;2.00;1.90;;;30.20;43.30;;;;;;5113829;28;20476;-76
2022/08/03 00:27:47;;;;;;;1.97;1.87;;;30.30;43.50;;;;;;5114365;28;20450;-76
2022/08/03 00:30:16;;;;;;;2.33;2.00;;;30.20;43.50;;;;;;5114213;28;20443;-77
2022/08/03 00:32:44;;;;;;;2.70;1.70;;;30.20;43.50;;;;;;5114512;28;20438;-77
2022/08/03 00:35:12;;;;;;;1.90;1.80;;;30.20;43.50;;;;;;5113486;28;20459;-76
2022/08/03 00:38:00;;;;;;;1.70;1.70;;;30.20;43.60;;;;;;5114130;28;20432;-76
2022/08/03 00:40:29;;;;;;;2.00;1.90;;;30.20;43.60;;;;;;5114095;28;20440;-77
2022/08/03 00:42:58;;;;;;;2.00;1.90;;;30.10;43.50;;;;;;5114745;28;20422;-78
2022/08/03 00:45:27;;;;;;;2.10;2.00;;;30.10;43.60;;;;;;5113584;28;20484;-78
2022/08/03 00:47:55;;;;;;;2.27;2.17;;;30.10;43.70;;;;;;5114528;28;20444;-77
2022/08/03 00:50:24;;;;;;;1.83;1.73;;;30.10;43.70;;;;;;5114030;28;20835;-77
2022/08/03 00:52:53;;;;;;;1.80;1.70;;;30.10;43.70;;;;;;5114308;28;20425;-77
2022/08/03 00:55:21;;;;;;;2.03;1.93;;;30.10;43.80;;;;;;5113504;28;20439;-77
2022/08/03 00:57:50;;;;;;;1.80;1.73;;;30.00;43.70;;;;;;5114222;28;20444;-77
2022/08/03 01:00:19;;;;;;;1.90;1.80;;;30.00;43.70;;;;;;5113864;28;20442;-77
2022/08/03 01:02:49;;;;;;;2.00;1.90;;;30.00;43.70;;;;;;5114047;28;20439;-77
2022/08/03 01:05:17;;;;;;;2.10;2.00;;;30.00;43.80;;;;;;5113123;28;20471;-78
2022/08/03 01:07:53;;;;;;;2.20;2.10;;;30.00;43.80;;;;;;5113856;28;20444;-77
2022/08/03 01:10:25;;;;;;;2.33;2.23;;;30.00;43.80;;;;;;5113244;28;20829;-77
2022/08/03 01:12:59;;;;;;;2.00;2.00;;;30.00;43.90;;;;;;5113752;28;20446;-77
2022/08/03 01:15:31;;;;;;;1.70;1.70;;;29.90;43.90;;;;;;5113284;28;20440;-77
2022/08/03 01:18:03;;;;;;;1.93;1.93;;;30.00;43.90;;;;;;5113583;28;20446;-77
2022/08/03 01:20:33;;;;;;;1.80;1.80;;;29.90;43.90;;;;;;5113306;28;20489;-77
2022/08/03 01:23:07;;;;;;;2.10;1.87;;;29.90;44.00;;;;;;5113652;28;20439;-77
2022/08/03 01:25:45;;;;;;;1.57;1.57;;;29.90;44.00;;;;;;5112451;28;20437;-77
2022/08/03 01:28:29;;;;;;;1.90;1.80;;;29.90;44.10;;;;;;5113295;28;20444;-77
2022/08/03 01:31:00;;;;;;;2.03;1.93;;;29.90;44.10;;;;;;5113473;28;20606;-77
2022/08/03 01:33:31;;;;;;;2.33;1.83;;;29.90;44.10;;;;;;5113234;28;20509;-77
2022/08/03 01:36:00;;;;;;;1.97;1.87;;;29.80;44.20;;;;;;5112552;28;20443;-77
2022/08/03 01:38:30;;;;;;;1.97;1.87;;;29.90;44.20;;;;;;5113153;28;20455;-79
2022/08/03 01:40:58;;;;;;;1.90;1.90;;;29.80;44.10;;;;;;5112899;28;20423;-79
2022/08/03 01:43:27;;;;;;;2.03;2.00;;;29.80;44.20;;;;;;5112932;28;20455;-78
2022/08/03 01:46:18;;;;;;;2.13;2.03;;;29.80;44.20;;;;;;5112087;28;20459;-77
2022/08/03 01:48:47;;;;;;;2.30;2.20;;;29.80;44.30;;;;;;5112947;28;20439;-77
2022/08/03 01:51:15;;;;;;;2.10;2.00;;;29.80;44.40;;;;;;5112453;28;20942;-79
2022/08/03 01:53:43;;;;;;;2.00;1.90;;;29.70;44.20;;;;;;5112837;28;20563;-78
2022/08/03 01:56:11;;;;;;;2.03;1.93;;;29.80;44.40;;;;;;5112173;28;20444;-78
2022/08/03 01:58:39;;;;;;;1.70;1.70;;;29.80;44.40;;;;;;5112770;28;20931;-77
2022/08/03 02:01:07;;;;;;;2.90;2.53;;;29.70;44.30;;;;;;5112682;28;20446;-77
2022/08/03 02:03:38;;;;;;;1.67;1.63;;;29.70;44.40;;;;;;5112566;28;20946;-78
2022/08/03 02:06:26;;;;;;;2.10;2.00;;;29.70;44.40;;;;;;5111879;28;20455;-76
2022/08/03 02:09:15;;;;;;;1.87;1.77;;;29.70;44.50;;;;;;5112220;28;20436;-76
2022/08/03 02:11:42;;;;;;;2.20;2.10;;;29.70;44.50;;;;;;5112837;28;20470;-79
2022/08/03 02:14:10;;;;;;;1.97;1.97;;;29.70;44.40;;;;;;5111995;28;20869;-78
2022/08/03 02:16:38;;;;;;;1.80;1.80;;;29.70;44.40;;;;;;5111606;28;20498;-76
2022/08/03 02:19:09;;;;;;;1.90;1.80;;;29.70;44.50;;;;;;5112418;28;20440;-77
2022/08/03 02:21:37;;;;;;;1.60;1.60;;;29.60;44.40;;;;;;5112518;28;20448;-78
2022/08/03 02:24:24;;;;;;;1.97;1.87;;;29.70;44.50;;;;;;5112123;28;21015;-77
2022/08/03 02:26:52;;;;;;;1.73;1.73;;;29.60;44.50;;;;;;5111143;28;20471;-78
2022/08/03 02:29:21;;;;;;;1.93;1.83;;;29.70;44.50;;;;;;5112117;28;20440;-77
2022/08/03 02:32:09;;;;;;;1.83;1.83;;;29.70;44.50;;;;;;5111656;28;20799;-78
2022/08/03 02:34:38;;;;;;;1.50;1.50;;;29.70;44.50;;;;;;5112145;28;20470;-77
2022/08/03 02:37:06;;;;;;;1.87;1.77;;;29.70;44.60;;;;;;5111127;28;20406;-77
2022/08/03 02:39:34;;;;;;;1.80;1.80;;;29.60;44.50;;;;;;5112288;28;20446;-77
2022/08/03 02:42:02;;;;;;;1.87;1.87;;;29.70;44.60;;;;;;5111733;28;20535;-76
2022/08/03 02:44:31;;;;;;;2.27;2.17;;;29.60;44.60;;;;;;5111809;28;20452;-76
2022/08/03 02:47:02;;;;;;;2.17;2.07;;;29.70;44.60;;;;;;5111074;28;20471;-77
2022/08/03 02:49:30;;;;;;;2.10;2.00;;;29.60;44.60;;;;;;5111599;28;20424;-76
2022/08/03 02:52:19;;;;;;;2.33;2.23;;;29.60;44.60;;;;;;5111510;28;20457;-76
2022/08/03 02:54:47;;;;;;;2.50;2.20;;;29.60;44.60;;;;;;5111593;28;20539;-76
2022/08/03 02:57:15;;;;;;;1.60;1.60;;;29.60;44.70;;;;;;5111268;28;20438;-76
2022/08/03 02:59:43;;;;;;;1.93;1.83;;;29.60;44.60;;;;;;5111532;28;20931;-78
2022/08/03 03:02:10;;;;;;;1.90;1.80;;;29.60;44.60;;;;;;5111150;28;20431;-78
2022/08/03 03:04:39;;;;;;;2.10;2.00;;;29.60;44.60;;;;;;5111481;28;20438;-78
2022/08/03 03:07:28;;;;;;;2.00;2.00;;;29.60;44.50;;;;;;5111175;28;20464;-78
2022/08/03 03:10:00;;;;;;;2.00;2.00;;;29.60;44.60;;;;;;5111401;28;20509;-78
2022/08/03 03:12:28;;;;;;;2.10;2.00;;;29.60;44.60;;;;;;5111203;28;21038;-77
2022/08/03 03:14:56;;;;;;;2.03;1.93;;;29.60;44.60;;;;;;5111261;28;20470;-76
2022/08/03 03:17:24;;;;;;;2.00;1.90;;;29.60;44.60;;;;;;5110085;28;20504;-77
2022/08/03 03:19:52;;;;;;;1.87;1.80;;;29.60;44.60;;;;;;5111165;28;20415;-77
2022/08/03 03:22:20;;;;;;;2.10;2.00;;;29.60;44.60;;;;;;5110892;28;20937;-77
2022/08/03 03:24:50;;;;;;;2.00;1.90;;;29.60;44.60;;;;;;5111070;28;20438;-77
2022/08/03 03:27:18;;;;;;;2.00;1.90;;;29.50;44.50;;;;;;5110547;28;20478;-76
2022/08/03 03:29:47;;;;;;;4.97;1.90;;;29.50;44.50;;;;;;5111053;28;20479;-77
2022/08/03 03:32:15;;;;;;;2.20;2.10;;;29.50;44.60;;;;;;5111064;28;20444;-77
2022/08/03 03:34:43;;;;;;;1.87;1.87;;;29.50;44.50;;;;;;5110918;28;20460;-77
2022/08/03 03:37:12;;;;;;;1.77;1.70;;;29.50;44.60;;;;;;5110309;28;20431;-77
2022/08/03 03:39:40;;;;;;;2.10;2.00;;;29.50;44.60;;;;;;5110764;28;20497;-77
2022/08/03 03:42:09;;;;;;;1.90;1.80;;;29.50;44.60;;;;;;5110992;28;20802;-76
2022/08/03 03:44:36;;;;;;;2.10;2.00;;;29.50;44.60;;;;;;5110818;28;20466;-76
2022/08/03 03:47:04;;;;;;;1.73;1.73;;;29.50;44.60;;;;;;5110472;28;20450;-76
2022/08/03 03:49:32;;;;;;;2.07;1.97;;;29.50;44.70;;;;;;5110787;28;20438;-77
2022/08/03 03:52:00;;;;;;;2.20;2.10;;;29.50;44.60;;;;;;5110897;28;20684;-76
2022/08/03 03:54:39;;;;;;;3.83;1.67;;;29.50;44.70;;;;;;5110507;28;20461;-76
2022/08/03 03:57:06;;;;;;;2.83;2.30;;;29.50;44.60;;;;;;5110515;28;20437;-77
2022/08/03 03:59:41;;;;;;;1.80;1.80;;;29.50;45.20;;;;;;5110876;28;20444;-76
2022/08/03 04:02:09;;;;;;;1.97;1.87;;;29.50;44.50;;;;;;5110981;28;20454;-77
2022/08/03 04:12:58;;;;;;;1.57;1.57;;;29.50;44.60;;;;;;5110439;28;20432;-76
2022/08/03 04:15:27;;;;;;;1.73;1.73;;;29.50;44.60;;;;;;5110250;28;20478;-76
2022/08/03 04:17:55;;;;;;;1.73;1.73;;;29.50;44.60;;;;;;5110620;28;20432;-76
2022/08/03 04:20:23;;;;;;;1.70;1.70;;;29.50;44.70;;;;;;5110712;28;20421;-76
2022/08/03 04:22:51;;;;;;;1.87;1.77;;;29.50;44.70;;;;;;5110776;28;20816;-77
2022/08/03 04:25:19;;;;;;;1.90;1.80;;;29.50;44.60;;;;;;5110117;28;20452;-76
2022/08/03 04:27:47;;;;;;;1.60;1.60;;;29.50;44.60;;;;;;5111811;28;20460;-76
2022/08/03 04:30:37;;;;;;;1.90;1.80;;;29.50;44.50;;;;;;5114571;28;20442;-77
2022/08/03 04:33:05;;;;;;;2.97;2.13;;;29.50;44.60;;;;;;5114497;28;20416;-76
2022/08/03 04:35:33;;;;;;;2.20;2.00;;;29.50;44.60;;;;;;5113698;27;20496;-76
2022/08/03 04:38:21;;;;;;;2.10;2.00;;;29.50;44.60;;;;;;5114576;28;20420;-76
2022/08/03 04:40:48;;;;;;;1.60;1.50;;;29.50;44.60;;;;;;5114484;28;20418;-76
2022/08/03 04:43:16;;;;;;;1.97;1.87;;;29.50;44.60;;;;;;5114315;28;20440;-76
2022/08/03 04:45:46;;;;;;;2.63;1.63;;;29.50;45.20;;;;;;5113843;28;20449;-76
2022/08/03 04:48:15;;;;;;;1.63;1.63;;;29.50;44.60;;;;;;5113809;28;20448;-76
2022/08/03 04:50:43;;;;;;;2.23;2.13;;;29.50;44.60;;;;;;5113959;28;20436;-76
2022/08/03 04:53:11;;;;;;;1.87;1.80;;;29.50;44.50;;;;;;5114085;28;20440;-77
2022/08/03 04:55:39;;;;;;;2.90;1.90;;;29.50;44.50;;;;;;5113217;28;20449;-77
2022/08/03 04:58:07;;;;;;;1.83;1.83;;;29.50;44.50;;;;;;5114456;28;20507;-78
2022/08/03 05:00:35;;;;;;;2.10;2.00;;;29.50;44.50;;;;;;5114008;28;20422;-79
2022/08/03 05:03:05;;;;;;;1.97;1.87;;;29.50;44.50;;;;;;5114003;28;20454;-77
2022/08/03 05:05:51;;;;;;;2.00;1.90;;;29.50;44.50;;;;;;5113955;28;20467;-78
2022/08/03 05:08:28;;;;;;;1.80;1.70;;;29.50;44.60;;;;;;5114023;28;20542;-80
2022/08/03 05:10:58;;;;;;;1.90;1.80;;;29.40;44.60;;;;;;5113891;28;20448;-80
2022/08/03 05:13:26;;;;;;;1.77;1.73;;;29.40;45.10;;;;;;5113714;28;20417;-79
2022/08/03 05:15:54;;;;;;;1.77;1.67;;;29.40;44.60;;;;;;5113135;28;20443;-79
2022/08/03 05:18:23;;;;;;;1.80;1.80;;;29.50;44.50;;;;;;5113517;28;20523;-78
2022/08/03 05:20:50;;;;;;;2.23;2.13;;;29.50;44.50;;;;;;5113514;28;20560;-79
2022/08/03 05:23:18;;;;;;;2.10;2.03;;;29.50;44.50;;;;;;5113466;28;20415;-79
2022/08/03 05:25:46;;;;;;;1.80;1.70;;;29.50;44.50;;;;;;5113268;28;20425;-78
2022/08/03 05:28:17;;;;;;;1.80;1.80;;;29.50;44.40;;;;;;5113746;28;20852;-79
2022/08/03 05:30:45;;;;;;;1.67;1.67;;;29.50;44.50;;;;;;5113459;28;20444;-79
2022/08/03 05:33:13;;;;;;;2.03;1.93;;;29.50;44.40;;;;;;5113501;28;20448;-79
2022/08/03 05:35:42;;;;;;;2.00;1.90;;;29.50;44.40;;;;;;5112586;28;20449;-79
2022/08/03 05:38:31;;;;;;;1.97;1.87;;;29.50;44.50;;;;;;5113158;28;20418;-81
2022/08/03 05:41:02;;;;;;;2.10;2.00;;;29.50;44.30;;;;;;5112411;28;20448;-78
2022/08/03 05:43:50;;;;;;;1.93;1.83;;;29.50;44.30;;;;;;5112896;28;20456;-79
2022/08/03 05:46:18;;;;;;;1.87;1.87;;;29.50;44.40;;;;;;5112401;28;20422;-79
2022/08/03 05:48:46;;;;;;;2.10;2.00;;;29.60;44.40;;;;;;5112670;28;20480;-77
2022/08/03 05:51:15;;;;;;;1.80;1.80;;;29.60;44.30;;;;;;5113295;28;20440;-77
2022/08/03 05:53:43;;;;;;;2.03;1.93;;;29.50;44.30;;;;;;5112894;28;20554;-77
2022/08/03 05:56:11;;;;;;;2.03;1.93;;;29.60;44.30;;;;;;5112089;28;20519;-78
2022/08/03 05:58:43;;;;;;;1.90;1.80;;;29.60;44.40;;;;;;5112939;28;20444;-78
2022/08/03 06:01:11;;;;;;;1.50;1.50;;;29.60;44.30;;;;;;5112686;28;20444;-77
2022/08/03 06:03:39;;;;;;;1.63;1.63;;;29.60;44.20;;;;;;5112514;28;20494;-77
2022/08/03 06:06:07;;;;;;;2.10;2.00;;;29.60;44.30;;;;;;5112179;28;20444;-79
2022/08/03 06:08:36;;;;;;;1.93;1.90;;;29.60;44.30;;;;;;5112439;28;20471;-77
2022/08/03 06:11:03;;;;;;;2.93;1.90;;;29.60;44.20;;;;;;5112275;28;20411;-77
2022/08/03 06:13:31;;;;;;;1.83;1.73;;;29.60;44.20;;;;;;5112324;28;20656;-77
2022/08/03 06:15:59;;;;;;;1.70;1.70;;;29.70;44.20;;;;;;5111419;28;20440;-77
2022/08/03 06:18:27;;;;;;;1.77;1.77;;;29.60;44.20;;;;;;5112459;28;20413;-78
2022/08/03 06:20:55;;;;;;;2.40;2.30;;;29.70;44.20;;;;;;5112296;28;20449;-77
2022/08/03 06:23:22;;;;;;;1.87;1.83;;;29.70;44.20;;;;;;5112186;28;20406;-75
2022/08/03 06:26:11;;;;;;;2.00;1.90;;;29.70;44.10;;;;;;5112541;28;20454;-78
2022/08/03 06:28:40;;;;;;;1.93;1.83;;;29.70;44.10;;;;;;5112294;28;20479;-79
2022/08/03 06:31:20;;;;;;;2.00;1.90;;;29.80;44.00;;;;;;5112560;28;20442;-77
2022/08/03 06:33:47;;;;;;;2.10;2.00;;;29.70;43.90;;;;;;5112505;28;20538;-77
2022/08/03 06:36:35;;;;;;;1.90;1.80;;;29.80;44.00;;;;;;5111586;28;20428;-77
2022/08/03 06:39:03;;;;;;;1.87;1.77;;;29.80;43.90;;;;;;5112194;28;20506;-77
2022/08/03 06:41:32;;;;;;;1.80;1.80;;;29.80;43.80;;;;;;5111935;28;20436;-78
2022/08/03 06:44:11;;;;;;;2.33;2.10;;;29.90;43.80;;;;;;5112070;28;20448;-77
2022/08/03 06:46:39;;;;;;;2.03;1.70;;;29.90;43.80;;;;;;5111229;28;20444;-77
2022/08/03 06:49:07;;;;;;;1.90;1.90;;;29.90;43.70;;;;;;5111874;28;20472;-77
2022/08/03 06:51:35;;;;;;;6.60;1.90;;;29.90;43.80;;;;;;5112809;28;20501;-78
2022/08/03 06:54:23;;;;;;;1.70;1.70;;;29.90;43.70;;;;;;5113128;28;20466;-77
2022/08/03 06:56:52;;;;;;;1.67;1.67;;;30.00;43.60;;;;;;5111968;28;20432;-77
2022/08/03 06:59:20;;;;;;;2.07;1.97;;;30.00;43.60;;;;;;5113165;28;20432;-78
2022/08/03 07:02:08;;;;;;;1.70;1.70;;;30.10;43.60;;;;;;5113062;28;20431;-78
2022/08/03 07:04:36;;;;;;;1.77;1.67;;;30.10;43.60;;;;;;5113081;28;20533;-76
2022/08/03 07:07:04;;;;;;;1.80;1.70;;;30.20;43.60;;;;;;5111667;28;20422;-79
2022/08/03 07:09:32;;;;;;;1.80;1.77;;;30.20;43.40;;;;;;5111363;28;20474;-79
2022/08/03 07:12:03;;;;;;;2.03;1.80;;;30.20;43.40;;;;;;5111375;28;20450;-79
2022/08/03 07:14:31;;;;;;;2.33;1.90;;;30.30;43.30;;;;;;5111309;28;20460;-79
2022/08/03 07:16:59;;;;;;;1.70;1.60;;;30.30;43.30;;;;;;5110936;28;20505;-79
2022/08/03 07:19:27;;;;;;;1.80;1.70;;;30.30;43.30;;;;;;5111370;28;20497;-79
2022/08/03 07:21:55;;;;;;;1.60;1.50;;;30.30;43.30;;;;;;5111405;28;20444;-78
2022/08/03 07:24:31;;;;;;;2.03;1.70;;;30.40;43.20;;;;;;5111492;28;21037;-79
2022/08/03 07:26:58;;;;;;;1.80;1.80;;;30.40;43.20;;;;;;5110916;28;20505;-80
2022/08/03 07:29:28;;;;;;;2.03;1.93;;;30.50;43.20;;;;;;5112428;28;20476;-80
2022/08/03 07:32:01;;;;;;;2.73;1.77;;;30.60;43.10;;;;;;5111594;28;20435;-78
2022/08/03 07:34:29;;;;;;;2.70;1.93;;;30.70;43.10;;;;;;5111200;28;20445;-79
2022/08/03 07:36:57;;;;;;;1.90;1.80;;;30.70;43.00;;;;;;5110755;28;20935;-78
2022/08/03 07:39:25;;;;;;;3.87;1.87;;;30.70;43.00;;;;;;5111111;28;20445;-79
2022/08/03 07:41:53;;;;;;;2.00;1.80;;;30.80;42.80;;;;;;5111047;28;20444;-78
2022/08/03 07:44:21;;;;;;;1.80;1.70;;;30.80;42.70;;;;;;5111087;28;20467;-78
2022/08/03 07:46:50;;;;;;;1.47;1.47;;;30.80;42.70;;;;;;5111042;28;20521;-79
2022/08/03 07:49:18;;;;;;;1.87;1.87;;;30.90;42.60;;;;;;5111266;28;20471;-78
2022/08/03 07:52:46;;;;;;;4.40;2.07;;;31.00;42.60;;;;;;5110993;28;20432;-79
2022/08/03 07:54:34;;;;;;;1.83;1.60;;;31.00;42.70;;;;;;5111250;28;20451;-80
2022/08/03 07:57:02;;;;;;;1.93;1.83;;;31.00;42.60;;;;;;5110619;28;20432;-78
2022/08/03 07:59:30;;;;;;;2.03;1.90;;;31.00;42.60;;;;;;5111525;28;20434;-80
2022/08/03 08:02:19;;;;;;;2.20;1.70;;;31.10;42.50;;;;;;5112611;28;20428;-80
2022/08/03 08:04:48;;;;;;;2.40;1.97;;;31.10;42.40;;;;;;5115076;28;20426;-78
2022/08/03 08:07:15;;;;;;;2.10;1.97;;;31.10;42.40;;;;;;5114996;28;20431;-78
2022/08/03 08:09:44;;;;;;;2.83;1.90;;;31.20;42.40;;;;;;5114783;28;20506;-77
2022/08/03 08:12:12;;;;;;;1.80;1.80;;;31.30;42.30;;;;;;5115061;28;20450;-78
2022/08/03 08:14:44;;;;;;;2.03;1.93;;;31.30;42.10;;;;;;5115038;28;20463;-77
2022/08/03 08:17:12;;;;;;;2.17;1.90;;;31.30;42.00;;;;;;5114365;28;20440;-79
2022/08/03 08:19:41;;;;;;;1.70;1.60;;;31.30;41.90;;;;;;5115078;28;20432;-78
2022/08/03 08:22:20;;;;;;;1.90;1.80;;;31.40;41.90;;;;;;5115175;28;20423;-78
2022/08/03 08:24:57;;;;;;;1.80;1.70;;;31.40;41.80;;;;;;5113939;28;20463;-78
2022/08/03 08:27:26;;;;;;;1.60;1.50;;;31.40;41.70;;;;;;5114680;28;20422;-77
2022/08/03 08:29:53;;;;;;;1.50;1.50;;;31.40;41.70;;;;;;5114582;28;20473;-79
2022/08/03 08:32:29;;;;;;;1.50;1.50;;;31.50;41.50;;;;;;5114889;28;20455;-79
2022/08/03 08:34:58;;;;;;;3.60;2.00;;;31.60;41.50;;;;;;5108495;28;20468;-79
2022/08/03 08:37:26;;;;;;;2.80;1.67;;;31.60;41.80;;;;;;5116252;28;20503;-79
2022/08/03 08:39:56;;;;;;;2.90;1.63;;;31.90;42.40;;;;;;5116838;28;20526;-81
2022/08/03 08:42:24;;;;;;;4.40;1.80;;;32.10;42.20;;;;;;5115266;28;20524;-79
2022/08/03 08:44:51;;;;;;;8.23;2.03;;;32.40;41.80;;;;;;5115887;28;20451;-78
2022/08/03 08:47:19;;;;;;;4.00;2.20;;;32.50;41.70;;;;;;5115219;28;20453;-78
2022/08/03 08:49:47;;;;;;;4.57;2.00;;;32.70;41.60;;;;;;5116485;28;20551;-81
2022/08/03 08:52:39;;;;;;;12.80;1.77;;;32.80;41.40;;;;;;5111927;28;20464;-77
2022/08/03 08:55:08;;;;;;;7.63;1.67;;;33.00;41.20;;;;;;5113952;27;20462;-80
2022/08/03 08:57:37;;;;;;;7.47;1.90;;;33.10;40.90;;;;;;5103334;28;20435;-79
2022/08/03 09:00:13;;;;;;;5.67;1.83;;;33.20;40.80;;;;;;5094205;28;20448;-79
2022/08/03 09:02:42;;;;;;;4.03;1.70;;;33.30;40.70;;;;;;5094688;28;20440;-78
2022/08/03 09:05:11;;;;;;;4.43;1.87;;;33.40;40.60;;;;;;5094292;28;20457;-77
2022/08/03 09:07:41;;;;;;;8.47;1.83;;;33.50;40.60;;;;;;5095017;28;21018;-78
2022/08/03 09:10:09;;;;;;;4.43;1.67;;;33.60;40.60;;;;;;5112147;28;20496;-78
2022/08/03 09:12:42;;;;;;;2.10;1.80;;;33.70;40.40;;;;;;5115820;28;20446;-78
2022/08/03 09:15:23;;;;;;;9.27;2.00;;;33.90;40.30;;;;;;5113083;28;20482;-77
2022/08/03 09:17:52;;;;;;;4.30;1.80;;;34.00;40.10;;;;;;5115019;28;20450;-77
2022/08/03 09:20:20;;;;;;;4.90;1.73;;;34.10;40.00;;;;;;5115420;28;20781;-78
2022/08/03 09:22:57;;;;;;;4.93;1.73;;;34.20;40.00;;;;;;5115642;28;20428;-78
2022/08/03 09:25:29;;;;;;;5.37;2.03;;;34.30;39.80;;;;;;5114976;28;20470;-78
2022/08/03 09:28:04;;;;;;;6.53;1.73;;;34.50;39.70;;;;;;5115693;28;20440;-81
2022/08/03 09:30:32;;;;;;;8.73;2.10;;;34.60;39.50;;;;;;5116415;28;20462;-79
2022/08/03 09:33:02;;;;;;;5.07;1.57;;;34.70;39.40;;;;;;5115895;28;20428;-78
2022/08/03 09:35:30;;;;;;;1.90;1.50;;;34.90;39.30;;;;;;5115178;28;20481;-79
2022/08/03 09:38:22;;;;;;;5.83;1.70;;;35.00;39.20;;;;;;5126006;28;20432;-81
2022/08/03 09:40:50;;;;;;;1.97;1.83;;;35.10;39.00;;;;;;5121383;28;20430;-81
2022/08/03 09:43:26;;;;;;;4.77;1.73;;;35.20;38.80;;;;;;5121283;28;20466;-79
2022/08/03 09:46:02;;;;;;;2.87;1.53;;;35.30;38.70;;;;;;5122009;28;20438;-80
2022/08/03 09:48:33;;;;;;;5.07;1.70;;;35.40;38.70;;;;;;5115974;28;20435;-81
2022/08/03 09:51:03;;;;;;;3.23;1.50;;;35.50;38.60;;;;;;5097931;28;21014;-80
2022/08/03 09:53:52;;;;;;;3.03;1.67;;;35.60;38.40;;;;;;5099508;28;20996;-81
2022/08/03 09:56:38;;;;;;;3.03;1.50;;;35.70;38.20;;;;;;5096606;28;20943;-80
2022/08/03 09:59:06;;;;;;;1.97;1.57;;;35.80;38.30;;;;;;5100484;28;20535;-80
2022/08/03 10:01:34;;;;;;;2.53;1.50;;;35.90;38.10;;;;;;5094471;28;20528;-78
2022/08/03 10:04:02;;;;;;;4.43;1.50;;;36.10;38.10;;;;;;5102370;28;20490;-79
2022/08/03 10:06:32;;;;;;;1.60;1.50;;;36.20;38.00;;;;;;5116033;28;20448;-79
2022/08/03 10:09:08;;;;;;;2.10;1.87;;;36.20;37.90;;;;;;5117802;28;20526;-79
2022/08/03 10:11:36;;;;;;;3.10;1.57;;;36.40;37.70;;;;;;5113757;28;20474;-80
2022/08/03 10:14:09;;;;;;;4.87;1.70;;;36.50;37.60;;;;;;5119425;28;20451;-80
2022/08/03 10:16:37;;;;;;;2.50;1.40;;;36.60;37.50;;;;;;5105260;28;20433;-79
2022/08/03 10:19:06;;;;;;;1.57;1.47;;;36.70;37.40;;;;;;5098334;28;20441;-80
2022/08/03 10:21:35;;;;;;;4.53;1.30;;;36.80;37.30;;;;;;5099524;28;20451;-79
2022/08/03 10:24:04;;;;;;;8.20;1.17;;;36.90;37.20;;;;;;5098416;28;20563;-79
2022/08/03 10:26:36;;;;;;;2.17;1.60;;;37.00;37.10;;;;;;5098168;28;20445;-79
2022/08/03 10:29:08;;;;;;;7.30;1.30;;;37.10;36.90;;;;;;5097535;28;20516;-79
2022/08/03 10:31:40;;;;;;;3.97;1.23;;;37.20;36.80;;;;;;5097534;28;20469;-79
2022/08/03 10:34:26;;;;;;;6.00;1.67;;;37.30;36.60;;;;;;5097190;28;20472;-78
2022/08/03 10:36:59;;;;;;;4.07;1.70;;;37.50;36.60;;;;;;5096660;28;20451;-80
2022/08/03 10:39:28;;;;;;;2.47;1.70;;;37.50;36.50;;;;;;5113430;28;20635;-81
2022/08/03 10:41:58;;;;;;;2.50;1.30;;;37.60;36.30;;;;;;5116446;28;20450;-81
2022/08/03 10:44:32;;;;;;;1.33;1.23;;;37.80;36.30;;;;;;5115826;28;21012;-81
2022/08/03 10:47:00;;;;;;;4.33;1.30;;;37.90;36.20;;;;;;5116636;28;20463;-81
2022/08/03 10:49:28;;;;;;;4.07;1.30;;;38.00;36.00;;;;;;5115750;28;20457;-81
2022/08/03 10:52:01;;;;;;;1.90;1.27;;;38.10;35.90;;;;;;5115803;28;20438;-79
2022/08/03 10:57:48;;;;;;;2.43;1.43;;;38.30;35.60;;;;;;5115140;28;20444;-79
2022/08/03 11:00:19;;;;;;;2.17;1.40;;;38.40;35.50;;;;;;5110595;28;20954;-80
2022/08/03 11:03:09;;;;;;;2.53;1.27;;;38.50;35.40;;;;;;5110093;28;20455;-80
2022/08/03 11:05:39;;;;;;;1.43;1.10;;;38.50;35.30;;;;;;5115476;28;20439;-79
2022/08/03 11:08:27;;;;;;;2.47;1.40;;;38.60;35.30;;;;;;5116546;28;20457;-79
2022/08/03 11:10:57;;;;;;;2.60;1.37;;;38.70;35.20;;;;;;5116048;28;20899;-79
2022/08/03 11:13:27;;;;;;;3.13;1.23;;;38.80;35.00;;;;;;5116708;28;20431;-79
2022/08/03 11:15:56;;;;;;;3.43;1.40;;;38.80;34.90;;;;;;5115461;28;20442;-79
2022/08/03 11:18:29;;;;;;;4.23;1.50;;;38.90;34.80;;;;;;5114946;28;20432;-79
2022/08/03 11:20:58;;;;;;;2.27;1.40;;;39.00;34.80;;;;;;5115033;28;20442;-79
2022/08/03 11:23:43;;;;;;;2.00;1.47;;;39.00;34.80;;;;;;5115925;28;20439;-79
2022/08/03 11:26:30;;;;;;;1.60;1.50;;;39.20;34.70;;;;;;5115646;28;20428;-79
2022/08/03 11:29:26;;;;;;;3.20;1.87;;;39.30;34.60;;;;;;5116506;28;20443;-79
2022/08/03 11:31:54;;;;;;;2.97;1.20;;;39.40;34.60;;;;;;5116440;28;20480;-79
2022/08/03 11:34:23;;;;;;;3.10;1.63;;;39.40;34.40;;;;;;5115524;28;20908;-79
2022/08/03 11:37:22;;;;;;;3.43;1.10;;;39.40;34.40;;;;;;5107779;28;20480;-79
2022/08/03 11:39:55;;;;;;;2.77;1.30;;;39.40;34.40;;;;;;5115637;28;20451;-79
2022/08/03 11:42:46;;;;;;;4.93;1.40;;;39.40;35.00;;;;;;5115801;28;20514;-79
2022/08/03 11:45:18;;;;;;;3.47;1.40;;;39.40;34.20;;;;;;5115065;28;20544;-79
2022/08/03 11:47:46;;;;;;;7.00;1.30;;;39.50;34.40;;;;;;5116411;28;20531;-79
2022/08/03 11:50:18;;;;;;;2.70;1.53;;;39.50;34.20;;;;;;5115801;28;20830;-79
2022/08/03 11:52:46;;;;;;;2.40;1.30;;;39.60;34.10;;;;;;5116120;28;20523;-79
2022/08/03 11:55:17;;;;;;;4.57;1.37;;;39.70;34.30;;;;;;5108602;28;20566;-79
2022/08/03 11:57:46;;;;;;;2.70;1.43;;;39.60;33.90;;;;;;5116481;28;20864;-79
2022/08/03 12:00:35;;;;;;;3.37;1.53;;;39.60;34.50;;;;;;5115839;28;20424;-79
2022/08/03 12:03:05;;;;;;;2.13;1.30;;;39.70;34.10;;;;;;5115592;28;20432;-80
2022/08/03 12:05:41;;;;;;;2.13;1.53;;;39.80;34.00;;;;;;5115266;28;20505;-79
2022/08/03 12:08:28;;;;;;;3.70;1.57;;;39.90;33.90;;;;;;5115937;28;20530;-79
2022/08/03 12:10:57;;;;;;;5.93;1.73;;;39.90;33.70;;;;;;5108606;28;20498;-79
2022/08/03 12:13:25;;;;;;;4.30;1.20;;;40.00;33.70;;;;;;5116636;28;20869;-79
2022/08/03 12:16:19;;;;;;;5.70;1.43;;;40.10;33.60;;;;;;5115482;28;20818;-79
2022/08/03 12:18:55;;;;;;;5.30;1.40;;;40.10;33.60;;;;;;5116375;28;20446;-79
2022/08/03 12:21:23;;;;;;;1.63;1.53;;;40.20;33.50;;;;;;5115935;28;20445;-80
2022/08/03 12:23:51;;;;;;;1.00;0.90;;;40.30;33.50;;;;;;5115616;28;20475;-80
2022/08/03 12:26:19;;;;;;;1.70;1.40;;;40.30;33.40;;;;;;5113603;28;20439;-79
2022/08/03 12:28:47;;;;;;;2.73;1.60;;;40.30;33.30;;;;;;5115258;28;20436;-79
2022/08/03 12:31:18;;;;;;;3.20;1.10;;;40.40;33.40;;;;;;5115807;28;20471;-79
2022/08/03 12:33:55;;;;;;;6.43;1.70;;;40.40;33.30;;;;;;5115710;28;20451;-79
2022/08/03 12:36:23;;;;;;;3.10;1.10;;;40.50;33.30;;;;;;5115634;28;20454;-80
2022/08/03 12:38:54;;;;;;;5.40;1.73;;;40.60;33.30;;;;;;5116565;28;20432;-80
2022/08/03 12:41:27;;;;;;;3.40;1.63;;;40.60;33.00;;;;;;5116211;28;20408;-79
2022/08/03 12:43:55;;;;;;;3.80;1.20;;;40.70;33.00;;;;;;5108682;28;20475;-79
2022/08/03 12:46:29;;;;;;;1.73;1.63;;;40.70;32.80;;;;;;5114999;28;20431;-79
2022/08/03 12:49:02;;;;;;;2.93;1.37;;;40.60;33.00;;;;;;5116900;28;20522;-79
2022/08/03 12:51:31;;;;;;;5.23;1.50;;;40.60;33.00;;;;;;5124817;28;20463;-79
2022/08/03 12:53:59;;;;;;;7.10;1.87;;;40.60;33.20;;;;;;5120089;27;20828;-80
2022/08/03 12:56:27;;;;;;;3.70;1.67;;;40.60;33.00;;;;;;5119275;28;20445;-79
2022/08/03 12:58:55;;;;;;;5.13;1.60;;;40.60;32.90;;;;;;5116114;28;20479;-79
2022/08/03 13:01:26;;;;;;;1.63;1.30;;;40.60;33.00;;;;;;5114874;28;20442;-79
2022/08/03 13:03:54;;;;;;;2.53;1.27;;;40.60;33.00;;;;;;5120296;28;20954;-80
2022/08/03 13:06:23;;;;;;;2.60;1.20;;;40.50;33.00;;;;;;5119591;27;20440;-79
2022/08/03 13:09:02;;;;;;;4.47;1.60;;;40.40;32.90;;;;;;5119281;28;20450;-80
2022/08/03 13:11:30;;;;;;;6.00;1.30;;;40.40;33.00;;;;;;5120253;28;20550;-80
2022/08/03 13:14:18;;;;;;;3.03;1.50;;;40.30;33.20;;;;;;5119485;28;20460;-79
2022/08/03 13:16:49;;;;;;;2.93;1.40;;;40.30;33.10;;;;;;5114259;28;20452;-79
2022/08/03 13:19:16;;;;;;;2.60;1.53;;;40.30;33.00;;;;;;5119270;28;20511;-80
2022/08/03 13:21:47;;;;;;;2.63;1.60;;;40.40;33.00;;;;;;5118987;28;20442;-80